createdAt,value
2022-07-25T00:00:11.686Z,85.87
2022-07-25T00:02:40.728Z,85.83
2022-07-25T00:05:08.633Z,85.42
2022-07-25T00:07:42.863Z,85.60
2022-07-25T00:10:10.741Z,86.29
2022-07-25T00:12:38.574Z,87.35
2022-07-25T00:15:09.059Z,87.08
2022-07-25T00:17:36.446Z,88.42
2022-07-25T00:20:06.849Z,88.13
2022-07-25T00:22:33.896Z,89.26
2022-07-25T00:25:02.342Z,88.73
2022-07-25T00:27:38.542Z,87.60
2022-07-25T00:30:07.099Z,88.42
2022-07-25T00:32:36.205Z,88.33
2022-07-25T00:35:04.115Z,87.91
2022-07-25T00:37:32.134Z,88.53
2022-07-25T00:39:59.742Z,88.81
2022-07-25T00:42:30.171Z,88.59
2022-07-25T00:44:57.384Z,88.54
2022-07-25T00:47:25.137Z,88.67
2022-07-25T00:49:52.410Z,88.67
2022-07-25T00:52:22.347Z,89.65
2022-07-25T00:54:50.522Z,90.31
2022-07-25T00:57:17.706Z,90.96
2022-07-25T00:59:47.079Z,90.33
2022-07-25T01:02:15.524Z,90.71
2022-07-25T01:04:42.524Z,90.09
2022-07-25T01:07:11.894Z,91.21
2022-07-25T01:09:41.847Z,91.72
2022-07-25T01:12:10.525Z,92.83
2022-07-25T01:14:43.045Z,91.50
2022-07-25T01:17:12.315Z,91.15
2022-07-25T01:19:46.778Z,90.49
2022-07-25T01:22:15.746Z,90.36
2022-07-25T01:24:45.689Z,89.65
2022-07-25T01:27:17.208Z,89.86
2022-07-25T01:29:44.981Z,91.49
2022-07-25T01:32:12.607Z,90.85
2022-07-25T01:34:41.612Z,91.05
2022-07-25T01:37:08.510Z,91.48
2022-07-25T01:39:41.085Z,91.76
2022-07-25T01:42:09.300Z,92.01
2022-07-25T01:44:41.160Z,92.14
2022-07-25T01:47:08.164Z,91.75
2022-07-25T01:49:36.208Z,92.33
2022-07-25T01:52:04.367Z,93.29
2022-07-25T01:54:31.471Z,92.77
2022-07-25T01:57:03.282Z,92.95
2022-07-25T01:59:30.501Z,93.52
2022-07-25T02:01:58.980Z,94.60
2022-07-25T02:04:26.066Z,94.45
2022-07-25T02:06:54.353Z,95.12
2022-07-25T02:09:21.560Z,94.15
2022-07-25T02:11:49.160Z,94.19
2022-07-25T02:14:18.009Z,94.31
2022-07-25T02:16:46.514Z,95.30
2022-07-25T02:19:13.394Z,95.38
2022-07-25T02:21:43.494Z,96.32
2022-07-25T02:24:11.300Z,96.42
2022-07-25T02:26:39.307Z,96.71
2022-07-25T02:29:07.817Z,96.22
2022-07-25T02:31:36.342Z,96.09
2022-07-25T02:34:05.356Z,96.13
2022-07-25T02:36:34.007Z,96.06
2022-07-25T02:39:00.795Z,96.18
2022-07-25T02:41:28.124Z,95.99
2022-07-25T02:43:57.943Z,95.52
2022-07-25T02:46:26.998Z,95.64
2022-07-25T02:48:55.562Z,95.09
2022-07-25T02:51:28.215Z,96.58
2022-07-25T02:53:57.744Z,97.15
2022-07-25T02:56:30.286Z,97.95
2022-07-25T02:58:59.412Z,97.78
2022-07-25T03:01:28.164Z,99.21
2022-07-25T03:03:56.801Z,98.92
2022-07-25T03:06:24.774Z,99.11
2022-07-25T03:08:53.834Z,99.11
2022-07-25T03:11:24.159Z,99.31
2022-07-25T03:13:55.274Z,99.10
2022-07-25T03:16:22.118Z,99.51
2022-07-25T03:18:50.411Z,99.02
2022-07-25T03:21:20.727Z,99.39
2022-07-25T03:24:03.657Z,100.00
2022-07-25T03:26:31.545Z,100.00
2022-07-25T03:28:58.935Z,100.00
2022-07-25T03:31:27.333Z,100.00
2022-07-25T03:33:55.712Z,99.75
2022-07-25T03:36:25.198Z,99.90
2022-07-25T03:38:52.513Z,98.12
2022-07-25T03:41:19.610Z,97.81
2022-07-25T03:43:52.367Z,97.93
2022-07-25T03:46:20.944Z,98.62
2022-07-25T03:48:50.779Z,99.16
2022-07-25T03:51:19.073Z,99.81
2022-07-25T03:53:51.538Z,99.90
2022-07-25T03:56:18.816Z,98.96
2022-07-25T03:58:47.833Z,99.39
2022-07-25T04:01:16.998Z,98.94
2022-07-25T04:03:47.322Z,99.52
2022-07-25T04:06:15.595Z,100.00
2022-07-25T04:08:42.846Z,100.00
2022-07-25T04:11:15.305Z,100.00
2022-07-25T04:13:42.264Z,100.00
2022-07-25T04:16:14.578Z,100.00
2022-07-25T04:18:50.030Z,100.00
2022-07-25T04:21:18.016Z,100.00
2022-07-25T04:23:45.843Z,100.00
2022-07-25T04:26:15.683Z,100.00
2022-07-25T04:28:42.871Z,100.00
2022-07-25T04:31:10.186Z,100.00
2022-07-25T04:33:38.552Z,100.00
2022-07-25T04:36:08.018Z,100.00
2022-07-25T04:38:35.202Z,100.00
2022-07-25T04:41:05.061Z,100.00
2022-07-25T04:43:33.318Z,100.00
2022-07-25T04:46:00.598Z,100.00
2022-07-25T04:48:31.729Z,100.00
2022-07-25T04:50:59.260Z,100.00
2022-07-25T04:53:26.205Z,100.00
2022-07-25T04:55:54.838Z,100.00
2022-07-25T04:58:22.999Z,100.00
2022-07-25T05:00:54.065Z,100.00
2022-07-25T05:03:21.929Z,100.00
2022-07-25T05:05:50.430Z,100.00
2022-07-25T05:08:17.446Z,100.00
2022-07-25T05:10:49.002Z,100.00
2022-07-25T05:13:15.970Z,100.00
2022-07-25T05:15:43.637Z,100.00
2022-07-25T05:18:12.014Z,100.00
2022-07-25T05:20:39.836Z,100.00
2022-07-25T05:23:07.876Z,100.00
2022-07-25T05:25:35.392Z,100.00
2022-07-25T05:28:04.578Z,100.00
2022-07-25T05:30:35.294Z,100.00
2022-07-25T05:33:05.098Z,99.45
2022-07-25T05:35:33.622Z,92.00
2022-07-25T05:38:04.275Z,82.50
2022-07-25T05:40:31.175Z,76.77
2022-07-25T05:43:03.020Z,72.12
2022-07-25T05:45:37.938Z,68.50
2022-07-25T05:48:06.783Z,64.73
2022-07-25T05:50:36.983Z,64.71
2022-07-25T05:53:05.265Z,63.31
2022-07-25T05:55:33.400Z,62.01
2022-07-25T05:58:04.819Z,62.33
2022-07-25T06:00:31.603Z,63.14
2022-07-25T06:03:00.279Z,62.50
2022-07-25T06:05:27.873Z,61.60
2022-07-25T06:07:57.362Z,62.54
2022-07-25T06:10:24.461Z,61.95
2022-07-25T06:12:51.818Z,60.00
2022-07-25T06:15:22.825Z,58.86
2022-07-25T06:17:54.654Z,59.16
2022-07-25T06:20:22.548Z,59.11
2022-07-25T06:22:49.814Z,57.99
2022-07-25T06:25:18.892Z,58.17
2022-07-25T06:27:46.917Z,57.66
2022-07-25T06:30:19.620Z,55.28
2022-07-25T06:32:47.004Z,55.23
2022-07-25T06:35:14.175Z,54.71
2022-07-25T06:37:49.480Z,55.74
2022-07-25T06:40:18.034Z,55.81
2022-07-25T06:42:46.795Z,57.46
2022-07-25T06:45:15.955Z,56.56
2022-07-25T06:47:43.958Z,56.80
2022-07-25T06:50:13.210Z,57.20
2022-07-25T06:52:40.574Z,56.00
2022-07-25T06:55:10.076Z,56.19
2022-07-25T06:57:38.561Z,55.10
2022-07-25T07:00:10.319Z,55.29
2022-07-25T07:02:48.766Z,55.54
2022-07-25T07:05:15.641Z,55.90
2022-07-25T07:07:47.390Z,55.53
2022-07-25T07:10:15.000Z,52.47
2022-07-25T07:12:43.629Z,55.54
2022-07-25T07:15:11.002Z,53.55
2022-07-25T07:17:38.383Z,54.09
2022-07-25T07:20:08.162Z,53.94
2022-07-25T07:22:44.228Z,51.76
2022-07-25T07:25:13.712Z,52.93
2022-07-25T07:27:41.607Z,53.22
2022-07-25T07:30:12.717Z,51.41
2022-07-25T07:32:41.634Z,52.96
2022-07-25T07:35:09.876Z,52.74
2022-07-25T07:37:42.986Z,51.86
2022-07-25T07:40:17.840Z,50.80
2022-07-25T07:42:49.792Z,52.62
2022-07-25T07:45:21.154Z,53.31
2022-07-25T07:47:49.645Z,51.98
2022-07-25T07:50:18.671Z,51.72
2022-07-25T07:52:47.378Z,52.46
2022-07-25T07:55:14.771Z,52.54
2022-07-25T07:57:41.994Z,51.53
2022-07-25T08:00:13.511Z,50.74
2022-07-25T08:02:48.695Z,48.90
2022-07-25T08:05:20.515Z,51.32
2022-07-25T08:07:47.740Z,50.30
2022-07-25T08:10:14.733Z,50.41
2022-07-25T08:12:42.280Z,49.49
2022-07-25T08:15:10.677Z,51.67
2022-07-25T08:17:37.462Z,50.04
2022-07-25T08:20:27.933Z,48.72
2022-07-25T08:22:57.262Z,49.15
2022-07-25T08:25:24.561Z,49.75
2022-07-25T08:27:51.441Z,49.49
2022-07-25T08:30:19.409Z,49.37
2022-07-25T08:32:47.611Z,49.07
2022-07-25T08:35:16.425Z,47.90
2022-07-25T08:37:44.341Z,47.56
2022-07-25T08:40:13.474Z,47.74
2022-07-25T08:42:41.049Z,48.87
2022-07-25T08:45:11.161Z,47.57
2022-07-25T08:47:39.627Z,47.46
2022-07-25T08:50:09.153Z,48.19
2022-07-25T08:52:38.556Z,46.57
2022-07-25T08:55:10.498Z,46.74
2022-07-25T08:57:38.241Z,48.78
2022-07-25T09:00:07.207Z,46.09
2022-07-25T09:02:35.642Z,47.27
2022-07-25T09:05:04.636Z,46.95
2022-07-25T09:07:34.702Z,46.64
2022-07-25T09:10:18.045Z,44.29
2022-07-25T09:12:53.690Z,46.41
2022-07-25T09:15:24.967Z,45.66
2022-07-25T09:17:53.591Z,44.80
2022-07-25T09:20:20.900Z,44.08
2022-07-25T09:22:48.135Z,42.34
2022-07-25T09:25:36.701Z,43.30
2022-07-25T09:28:19.307Z,44.69
2022-07-25T09:30:57.750Z,42.54
2022-07-25T09:33:26.409Z,43.17
2022-07-25T09:35:55.006Z,42.53
2022-07-25T09:38:23.479Z,40.57
2022-07-25T09:40:56.529Z,42.52
2022-07-25T09:43:24.432Z,43.10
2022-07-25T09:45:52.985Z,44.33
2022-07-25T09:48:20.532Z,42.52
2022-07-25T09:50:48.004Z,43.36
2022-07-25T09:53:19.084Z,40.26
2022-07-25T09:55:46.054Z,40.54
2022-07-25T09:58:17.578Z,43.32
2022-07-25T10:00:46.587Z,43.87
2022-07-25T10:03:20.430Z,43.48
2022-07-25T10:06:01.084Z,42.47
2022-07-25T10:08:37.496Z,42.65
2022-07-25T10:11:04.837Z,42.67
2022-07-25T10:13:35.847Z,39.13
2022-07-25T10:16:03.072Z,39.18
2022-07-25T10:18:32.025Z,40.34
2022-07-25T10:21:24.843Z,41.61
2022-07-25T10:24:06.782Z,40.26
2022-07-25T10:26:36.412Z,38.49
2022-07-25T10:29:09.257Z,40.06
2022-07-25T10:31:38.571Z,39.24
2022-07-25T10:34:10.296Z,37.34
2022-07-25T10:36:43.161Z,36.27
2022-07-25T10:39:12.176Z,36.47
2022-07-25T10:41:40.124Z,37.86
2022-07-25T10:44:15.717Z,41.31
2022-07-25T10:46:43.882Z,40.22
2022-07-25T10:49:19.133Z,38.85
2022-07-25T10:51:54.982Z,40.21
2022-07-25T10:54:22.923Z,38.36
2022-07-25T10:56:55.947Z,39.22
2022-07-25T10:59:29.099Z,40.36
2022-07-25T11:01:56.535Z,41.01
2022-07-25T11:04:24.390Z,39.73
2022-07-25T11:06:52.591Z,36.39
2022-07-25T11:09:26.550Z,37.07
2022-07-25T11:11:56.537Z,39.94
2022-07-25T11:14:24.971Z,40.65
2022-07-25T11:16:59.646Z,36.35
2022-07-25T11:19:28.797Z,38.45
2022-07-25T11:21:58.430Z,38.82
2022-07-25T11:24:40.797Z,36.37
2022-07-25T11:27:12.430Z,38.95
2022-07-25T11:29:40.529Z,35.23
2022-07-25T11:32:12.573Z,37.31
2022-07-25T11:34:42.523Z,40.84
2022-07-25T11:37:13.927Z,38.29
2022-07-25T11:39:43.517Z,37.48
2022-07-25T11:42:20.671Z,36.65
2022-07-25T11:44:48.984Z,35.55
2022-07-25T11:47:32.273Z,35.65
2022-07-25T11:50:00.852Z,38.38
2022-07-25T11:52:33.831Z,40.06
2022-07-25T11:55:02.481Z,37.43
2022-07-25T11:57:32.995Z,38.65
2022-07-25T12:00:01.259Z,39.04
2022-07-25T12:02:36.963Z,37.75
2022-07-25T12:05:06.574Z,35.81
2022-07-25T12:07:42.630Z,38.72
2022-07-25T12:10:14.389Z,35.02
2022-07-25T12:12:48.805Z,34.28
2022-07-25T12:15:19.039Z,34.67
2022-07-25T12:17:49.344Z,34.07
2022-07-25T12:20:18.884Z,38.27
2022-07-25T12:22:46.199Z,37.35
2022-07-25T12:25:13.656Z,36.10
2022-07-25T12:27:41.836Z,36.93
2022-07-25T12:30:10.915Z,34.53
2022-07-25T12:32:39.202Z,33.23
2022-07-25T12:35:09.571Z,36.44
2022-07-25T12:37:41.278Z,35.09
2022-07-25T12:40:11.485Z,34.36
2022-07-25T12:42:39.435Z,33.75
2022-07-25T12:45:07.324Z,32.84
2022-07-25T12:47:36.018Z,34.40
2022-07-25T12:50:06.070Z,33.01
2022-07-25T12:52:35.643Z,33.52
2022-07-25T12:55:02.553Z,35.00
2022-07-25T12:57:29.532Z,33.57
2022-07-25T12:59:58.924Z,36.12
2022-07-25T13:02:27.450Z,32.96
2022-07-25T13:04:56.391Z,33.75
2022-07-25T13:07:24.784Z,34.62
2022-07-25T13:09:55.703Z,33.21
2022-07-25T13:12:22.928Z,34.62
2022-07-25T13:14:53.897Z,32.93
2022-07-25T13:17:26.498Z,33.97
2022-07-25T13:19:54.351Z,31.35
2022-07-25T13:22:21.233Z,33.19
2022-07-25T13:24:49.261Z,34.84
2022-07-25T13:27:18.093Z,35.00
2022-07-25T13:29:45.386Z,33.06
2022-07-25T13:32:14.397Z,34.36
2022-07-25T13:34:43.617Z,35.42
2022-07-25T13:37:11.271Z,34.96
2022-07-25T13:39:38.984Z,35.42
2022-07-25T13:42:07.092Z,35.63
2022-07-25T13:44:38.086Z,34.65
2022-07-25T13:47:05.451Z,33.09
2022-07-25T13:49:36.717Z,34.04
2022-07-25T13:52:04.014Z,35.76
2022-07-25T13:54:33.375Z,35.00
2022-07-25T13:57:03.322Z,34.23
2022-07-25T13:59:31.974Z,36.80
2022-07-25T14:02:00.726Z,36.67
2022-07-25T14:04:30.972Z,35.05
2022-07-25T14:07:01.315Z,35.65
2022-07-25T14:09:28.458Z,36.16
2022-07-25T14:11:55.396Z,33.37
2022-07-25T14:14:22.938Z,35.16
2022-07-25T14:16:52.659Z,33.71
2022-07-25T14:19:22.359Z,34.79
2022-07-25T14:21:49.615Z,36.43
2022-07-25T14:24:16.426Z,34.47
2022-07-25T14:26:44.432Z,35.80
2022-07-25T14:29:12.310Z,36.01
2022-07-25T14:31:41.040Z,35.88
2022-07-25T14:34:08.293Z,33.60
2022-07-25T14:36:37.122Z,32.59
2022-07-25T14:39:05.758Z,33.39
2022-07-25T14:41:35.983Z,35.09
2022-07-25T14:44:05.744Z,35.71
2022-07-25T14:46:32.941Z,35.05
2022-07-25T14:49:00.221Z,33.44
2022-07-25T14:51:30.919Z,35.47
2022-07-25T14:53:59.428Z,36.48
2022-07-25T14:56:31.814Z,34.63
2022-07-25T14:58:59.184Z,35.59
2022-07-25T15:01:28.603Z,36.15
2022-07-25T15:03:58.293Z,36.72
2022-07-25T15:06:29.183Z,35.14
2022-07-25T15:08:57.323Z,35.68
2022-07-25T15:11:27.100Z,35.02
2022-07-25T15:13:54.185Z,33.97
2022-07-25T15:16:22.723Z,33.88
2022-07-25T15:19:15.303Z,33.12
2022-07-25T15:21:41.882Z,35.65
2022-07-25T15:24:08.834Z,35.61
2022-07-25T15:26:41.206Z,35.86
2022-07-25T15:29:10.814Z,36.67
2022-07-25T15:31:38.723Z,36.89
2022-07-25T15:34:05.937Z,34.57
2022-07-25T15:36:32.742Z,37.59
2022-07-25T15:38:59.796Z,36.62
2022-07-25T15:41:28.087Z,36.16
2022-07-25T15:43:57.812Z,37.03
2022-07-25T15:46:24.658Z,37.61
2022-07-25T15:48:56.087Z,36.17
2022-07-25T15:51:22.961Z,35.29
2022-07-25T15:53:52.571Z,36.96
2022-07-25T15:56:19.410Z,36.83
2022-07-25T15:58:48.692Z,38.08
2022-07-25T16:01:18.964Z,38.91
2022-07-25T16:03:48.516Z,37.10
2022-07-25T16:06:18.756Z,35.38
2022-07-25T16:08:50.919Z,36.12
2022-07-25T16:11:18.155Z,36.22
2022-07-25T16:13:45.536Z,38.69
2022-07-25T16:16:12.774Z,37.49
2022-07-25T16:18:42.378Z,36.75
2022-07-25T16:21:09.258Z,36.29
2022-07-25T16:23:39.689Z,38.70
2022-07-25T16:26:08.613Z,38.49
2022-07-25T16:28:36.996Z,37.56
2022-07-25T16:31:05.192Z,37.56
2022-07-25T16:33:32.198Z,37.93
2022-07-25T16:36:01.971Z,38.10
2022-07-25T16:38:30.732Z,38.54
2022-07-25T16:40:57.747Z,37.79
2022-07-25T16:43:26.532Z,38.52
2022-07-25T16:45:55.014Z,38.46
2022-07-25T16:48:21.914Z,38.95
2022-07-25T16:50:50.495Z,39.29
2022-07-25T16:53:18.883Z,40.42
2022-07-25T16:55:45.873Z,39.13
2022-07-25T16:58:12.760Z,39.58
2022-07-25T17:00:41.285Z,39.55
2022-07-25T17:03:08.408Z,40.91
2022-07-25T17:05:38.212Z,42.21
2022-07-25T17:08:06.282Z,41.47
2022-07-25T17:10:40.632Z,41.49
2022-07-25T17:13:07.585Z,43.40
2022-07-25T17:15:34.664Z,43.40
2022-07-25T17:18:02.795Z,45.94
2022-07-25T17:20:31.991Z,46.58
2022-07-25T17:22:58.955Z,47.85
2022-07-25T17:25:25.969Z,44.85
2022-07-25T17:27:56.415Z,44.80
2022-07-25T17:30:24.076Z,46.57
2022-07-25T17:32:51.531Z,44.79
2022-07-25T17:35:20.853Z,48.94
2022-07-25T17:37:47.926Z,44.57
2022-07-25T17:40:14.921Z,45.25
2022-07-25T17:42:45.273Z,45.98
2022-07-25T17:45:15.117Z,46.38
2022-07-25T17:47:46.165Z,47.26
2022-07-25T17:50:14.099Z,48.68
2022-07-25T17:52:42.526Z,50.26
2022-07-25T17:55:10.973Z,48.71
2022-07-25T17:57:40.709Z,49.69
2022-07-25T18:00:10.346Z,48.17
2022-07-25T18:02:38.865Z,48.35
2022-07-25T18:05:07.957Z,53.29
2022-07-25T18:07:35.028Z,55.73
2022-07-25T18:10:04.895Z,53.58
2022-07-25T18:12:32.349Z,54.18
2022-07-25T18:15:01.385Z,58.29
2022-07-25T18:17:39.731Z,57.95
2022-07-25T18:20:21.843Z,57.20
2022-07-25T18:22:50.382Z,56.76
2022-07-25T18:25:19.382Z,58.24
2022-07-25T18:27:47.110Z,65.00
2022-07-25T18:30:14.998Z,60.40
2022-07-25T18:32:41.784Z,58.64
2022-07-25T18:35:10.558Z,58.79
2022-07-25T18:37:38.906Z,60.82
2022-07-25T18:40:07.314Z,59.48
2022-07-25T18:42:34.960Z,60.45
2022-07-25T18:45:04.363Z,66.22
2022-07-25T18:47:33.643Z,64.75
2022-07-25T18:50:04.907Z,62.91
2022-07-25T18:52:31.877Z,62.86
2022-07-25T18:55:00.448Z,60.82
2022-07-25T18:57:30.684Z,62.63
2022-07-25T19:00:02.750Z,63.28
2022-07-25T19:02:30.945Z,59.54
2022-07-25T19:04:57.946Z,60.07
2022-07-25T19:07:26.313Z,61.04
2022-07-25T19:09:53.875Z,63.76
2022-07-25T19:12:24.677Z,59.49
2022-07-25T19:14:52.573Z,59.75
2022-07-25T19:17:22.490Z,58.40
2022-07-25T19:19:49.767Z,60.95
2022-07-25T19:22:17.356Z,62.58
2022-07-25T19:24:45.758Z,62.69
2022-07-25T19:27:20.088Z,58.90
2022-07-25T19:29:48.402Z,59.31
2022-07-25T19:32:18.073Z,60.52
2022-07-25T19:34:47.682Z,60.28
2022-07-25T19:37:16.657Z,62.17
2022-07-25T19:39:46.204Z,59.07
2022-07-25T19:42:13.221Z,59.57
2022-07-25T19:44:40.160Z,62.79
2022-07-25T19:47:11.607Z,62.14
2022-07-25T19:49:38.998Z,62.96
2022-07-25T19:52:08.953Z,63.09
2022-07-25T19:54:35.900Z,63.87
2022-07-25T19:57:05.286Z,62.59
2022-07-25T19:59:32.600Z,63.24
2022-07-25T20:01:59.756Z,63.67
2022-07-25T20:04:29.633Z,64.12
2022-07-25T20:06:58.493Z,64.63
2022-07-25T20:09:28.986Z,66.07
2022-07-25T20:12:00.538Z,64.17
2022-07-25T20:14:29.698Z,66.96
2022-07-25T20:16:57.463Z,67.97
2022-07-25T20:19:24.888Z,63.53
2022-07-25T20:21:53.358Z,66.17
2022-07-25T20:24:22.071Z,66.43
2022-07-25T20:26:49.224Z,68.04
2022-07-25T20:29:18.113Z,67.47
2022-07-25T20:31:45.567Z,64.84
2022-07-25T20:34:13.503Z,64.41
2022-07-25T20:36:41.811Z,64.73
2022-07-25T20:39:11.305Z,68.84
2022-07-25T20:41:40.927Z,70.22
2022-07-25T20:44:08.717Z,70.07
2022-07-25T20:46:37.699Z,70.95
2022-07-25T20:49:07.487Z,70.77
2022-07-25T20:51:36.714Z,67.98
2022-07-25T20:54:04.116Z,66.47
2022-07-25T20:56:33.547Z,66.29
2022-07-25T20:59:00.422Z,65.39
2022-07-25T21:01:32.485Z,66.63
2022-07-25T21:04:00.235Z,69.47
2022-07-25T21:06:29.079Z,71.09
2022-07-25T21:08:58.119Z,70.94
2022-07-25T21:11:26.578Z,70.48
2022-07-25T21:13:54.913Z,71.37
2022-07-25T21:16:22.327Z,71.39
2022-07-25T21:18:49.380Z,72.77
2022-07-25T21:21:17.408Z,73.01
2022-07-25T21:23:44.445Z,75.02
2022-07-25T21:26:12.600Z,75.43
2022-07-25T21:28:44.600Z,76.25
2022-07-25T21:31:13.174Z,75.80
2022-07-25T21:33:41.822Z,75.28
2022-07-25T21:36:09.635Z,75.21
2022-07-25T21:38:36.805Z,75.92
2022-07-25T21:41:07.659Z,74.59
2022-07-25T21:43:37.928Z,73.74
2022-07-25T21:46:05.684Z,73.40
2022-07-25T21:48:35.616Z,74.66
2022-07-25T21:51:03.657Z,74.39
2022-07-25T21:53:36.338Z,75.03
2022-07-25T21:56:03.229Z,72.05
2022-07-25T21:58:31.262Z,72.97
2022-07-25T22:00:58.682Z,72.84
2022-07-25T22:03:26.038Z,73.02
2022-07-25T22:05:54.922Z,73.12
2022-07-25T22:08:21.753Z,72.82
2022-07-25T22:10:51.840Z,71.95
2022-07-25T22:13:21.000Z,70.23
2022-07-25T22:15:51.231Z,69.11
2022-07-25T22:18:18.922Z,67.66
2022-07-25T22:20:47.907Z,66.53
2022-07-25T22:23:16.131Z,64.49
2022-07-25T22:25:43.371Z,65.56
2022-07-25T22:28:14.343Z,65.22
2022-07-25T22:30:42.739Z,64.57
2022-07-25T22:33:09.778Z,67.11
2022-07-25T22:35:38.772Z,67.17
2022-07-25T22:38:05.727Z,68.53
2022-07-25T22:40:36.675Z,70.31
2022-07-25T22:43:05.159Z,71.84
2022-07-25T22:45:34.215Z,72.60
2022-07-25T22:48:05.435Z,72.49
2022-07-25T22:50:37.322Z,72.11
2022-07-25T22:53:04.385Z,71.81
2022-07-25T22:55:31.622Z,71.41
2022-07-25T22:58:00.287Z,71.53
2022-07-25T23:00:27.378Z,73.05
2022-07-25T23:02:55.230Z,73.39
2022-07-25T23:05:22.277Z,73.98
2022-07-25T23:07:51.061Z,73.85
2022-07-25T23:10:17.872Z,74.56
2022-07-25T23:12:45.383Z,75.95
2022-07-25T23:15:14.190Z,76.45
2022-07-25T23:17:45.268Z,79.11
2022-07-25T23:20:12.756Z,81.61
2022-07-25T23:22:41.332Z,82.68
2022-07-25T23:25:10.783Z,83.63
2022-07-25T23:27:40.398Z,82.93
2022-07-25T23:30:09.021Z,86.66
2022-07-25T23:32:38.416Z,86.50
2022-07-25T23:35:06.878Z,87.21
2022-07-25T23:37:34.020Z,89.44
2022-07-25T23:40:00.835Z,90.53
2022-07-25T23:42:30.846Z,91.22
2022-07-25T23:45:01.938Z,91.45
2022-07-25T23:47:39.309Z,93.39
2022-07-25T23:50:10.198Z,90.77
2022-07-25T23:52:44.692Z,92.86
2022-07-25T23:55:11.588Z,91.48
2022-07-25T23:57:39.669Z,88.92
